Magdalen — WDJ7547 — position and weather

sailwx.info

Track history (hours):
 
Tides and Currents Weather Stations Pressure Air Temp Water Temp Dewpoint Dewpoint Depression Visibility Wind Speed Wind Dir Waves Ship Positions

Magdalen

Owner: Weeks Marine, Inc., Cranford, NJ. More information available from US FCC via Universal Licensing System and Coast Guard Vessel Documentation Center.

Last reported at 2018-Apr-21 13:00 UTC. Time now 2018-Apr-21 13:28 UTC.
Position N 39°37' W 074°10'.

Length 83 m; draft 4.7 m.

Type: Dredging. MMSI: 369305000.

Date/timePositionNaut miles runAvg speedWind from/ knotsBaromVisibWave heightAir tempDewpointWater temp
2018-Apr-21 13:00N 39°37' W 074°10'0 0.1
2018-Apr-21 12:29N 39°37' W 074°10'5 9.9
2018-Apr-21 11:59N 39°40' W 074°05'1 1.3
2018-Apr-21 11:30N 39°40' W 074°04'0 0.8
2018-Apr-21 11:00N 39°40' W 074°05'0 0.6
2018-Apr-21 10:28N 39°40' W 074°04'0 0.5
2018-Apr-21 10:00N 39°40' W 074°04'4 8.5
2018-Apr-21 09:29N 39°38' W 074°09'1 1.8
2018-Apr-21 08:58N 39°37' W 074°10'0 0.0
2018-Apr-21 08:28N 39°37' W 074°10'0 0.1
2018-Apr-21 07:59N 39°37' W 074°10'0 0.1
2018-Apr-21 07:29N 39°37' W 074°10'5 9.7
2018-Apr-21 06:57N 39°40' W 074°04'1 1.4
2018-Apr-21 06:28N 39°40' W 074°05'0 0.4
2018-Apr-21 05:59N 39°40' W 074°05'0 0.8
2018-Apr-21 05:30N 39°40' W 074°04'0 0.1
2018-Apr-21 05:00N 39°40' W 074°04'0 0.1
2018-Apr-21 04:29N 39°40' W 074°04'1 2.9
2018-Apr-21 04:00N 39°39' W 074°06'4 8.3
2018-Apr-21 03:30N 39°37' W 074°10'0 0.0
2018-Apr-21 03:00N 39°37' W 074°10'0 0.0
2018-Apr-21 02:30N 39°37' W 074°10'0 0.1
2018-Apr-21 02:00N 39°37' W 074°10'0 0.5
2018-Apr-21 01:28N 39°37' W 074°10'511.5
2018-Apr-21 01:00N 39°40' W 074°04'0 0.9
2018-Apr-21 00:30N 39°40' W 074°04'0 0.3
2018-Apr-20 23:59N 39°40' W 074°04'0 0.4
2018-Apr-20 23:30N 39°40' W 074°04'0 0.7
2018-Apr-20 22:59N 39°40' W 074°05'2 5.1
2018-Apr-20 22:29N 39°39' W 074°07'3 5.4
2018-Apr-20 22:00N 39°37' W 074°10'0 0.0
2018-Apr-20 21:27N 39°37' W 074°10'0 0.1
2018-Apr-20 20:57N 39°37' W 074°10'0 0.1
2018-Apr-20 20:30N 39°37' W 074°10'0 0.1
2018-Apr-20 20:00N 39°37' W 074°10'5 9.6
2018-Apr-20 19:28N 39°40' W 074°04'0 0.7
2018-Apr-20 19:00N 39°40' W 074°04'0 0.7
2018-Apr-20 18:29N 39°40' W 074°05'0 0.5
2018-Apr-20 18:00N 39°40' W 074°04'0 0.5
2018-Apr-20 17:30N 39°40' W 074°05'510.0
2018-Apr-20 17:01N 39°37' W 074°10'0 0.4
2018-Apr-20 16:30N 39°37' W 074°10'0 0.1
2018-Apr-20 16:00N 39°37' W 074°10'0 0.0
2018-Apr-20 15:30N 39°37' W 074°10'0 0.1
2018-Apr-20 14:56N 39°37' W 074°10'4 7.6
2018-Apr-20 14:27N 39°39' W 074°06'2 3.9
2018-Apr-20 13:59N 39°40' W 074°04'0 0.3
2018-Apr-20 13:18N 39°40' W 074°04'0 0.8
2018-Apr-20 13:00N 39°40' W 074°04'0 0.4
2018-Apr-20 12:28N 39°40' W 074°04'0 0.8
2018-Apr-20 12:00N 39°40' W 074°05'3 5.4
2018-Apr-20 11:30N 39°39' W 074°08'2 4.9
2018-Apr-20 11:00N 39°37' W 074°10'0 0.0
2018-Apr-20 10:29N 39°37' W 074°10'0 0.0
2018-Apr-20 10:00N 39°37' W 074°10'0 0.0
2018-Apr-20 09:30N 39°37' W 074°10'1 2.3
2018-Apr-20 09:00N 39°38' W 074°09'4 7.0
2018-Apr-20 08:25N 39°40' W 074°04'0 0.5
2018-Apr-20 07:58N 39°40' W 074°04'0 1.1
2018-Apr-20 07:31N 39°40' W 074°05'0 0.1
2018-Apr-20 07:00N 39°40' W 074°05'0 0.7
2018-Apr-20 06:30N 39°40' W 074°05'2 4.5
2018-Apr-20 06:00N 39°39' W 074°07'3 6.1
2018-Apr-20 05:30N 39°37' W 074°10'0 0.0
2018-Apr-20 05:00N 39°37' W 074°10'0 0.1
2018-Apr-20 04:29N 39°37' W 074°10'0 0.1
2018-Apr-20 03:59N 39°37' W 074°10'4 8.0
2018-Apr-20 03:27N 39°39' W 074°05'1 2.8
2018-Apr-20 02:59N 39°40' W 074°05'0 0.6
2018-Apr-20 02:30N 39°40' W 074°04'0 1.0
2018-Apr-20 02:00N 39°40' W 074°05'0 0.6
2018-Apr-20 01:29N 39°40' W 074°04'0 0.1
2018-Apr-20 00:59N 39°40' W 074°04'0 0.1
2018-Apr-20 00:30N 39°40' W 074°04'1 1.1
2018-Apr-19 23:59N 39°40' W 074°05'5 9.4
2018-Apr-19 23:29N 39°37' W 074°10'0 0.1
2018-Apr-19 22:58N 39°37' W 074°10'0 0.0
2018-Apr-19 22:26N 39°37' W 074°10'0 0.1
2018-Apr-19 22:00N 39°37' W 074°10'0 0.1
2018-Apr-19 21:29N 39°37' W 074°10'510.1
2018-Apr-19 20:59N 39°40' W 074°05'1 1.1
2018-Apr-19 20:31N 39°40' W 074°04'0 0.9
2018-Apr-19 20:00N 39°40' W 074°05'0 0.7
2018-Apr-19 19:28N 39°40' W 074°04'1 1.6
2018-Apr-19 18:59N 39°40' W 074°05'5 9.1
2018-Apr-19 18:27N 39°37' W 074°10'0 0.0
2018-Apr-19 17:58N 39°37' W 074°10'0 0.0
2018-Apr-19 17:30N 39°37' W 074°10'0 0.1
2018-Apr-19 17:00N 39°37' W 074°10'4 7.8
2018-Apr-19 16:30N 39°39' W 074°06'2 3.3
2018-Apr-19 16:00N 39°40' W 074°05'0 0.3
2018-Apr-19 15:30N 39°40' W 074°04'0 0.1
2018-Apr-19 14:59N 39°40' W 074°04'0 0.4
2018-Apr-19 14:30N 39°40' W 074°04'1 1.0
2018-Apr-19 13:59N 39°40' W 074°05'4 8.1
2018-Apr-19 13:26N 39°38' W 074°09'1 1.3
2018-Apr-19 12:54N 39°37' W 074°10'0 0.0
2018-Apr-19 12:30N 39°37' W 074°10'0 0.1
2018-Apr-19 11:56N 39°37' W 074°10'0 0.1
2018-Apr-19 11:21N 39°37' W 074°10'3 7.5
2018-Apr-19 11:00N 39°38' W 074°07'2 4.8
2018-Apr-19 10:30N 39°40' W 074°05'0 0.4
2018-Apr-19 10:00N 39°40' W 074°05'0 0.6
2018-Apr-19 09:30N 39°40' W 074°04'0 0.2
2018-Apr-19 09:00N 39°40' W 074°04'0 0.2
2018-Apr-19 08:30N 39°40' W 074°04'0 0.6
2018-Apr-19 08:00N 39°40' W 074°05'5 9.9
2018-Apr-19 07:30N 39°37' W 074°10'0 0.3
2018-Apr-19 07:00N 39°37' W 074°10'0 0.2
2018-Apr-19 06:30N 39°37' W 074°10'0 0.0
2018-Apr-19 06:00N 39°37' W 074°10'0 0.2
2018-Apr-19 05:27N 39°37' W 074°10'511.3
2018-Apr-19 05:00N 39°41' W 074°05'1 1.8
2018-Apr-19 04:30N 39°40' W 074°04'0 0.3
2018-Apr-19 04:00N 39°40' W 074°04'0 0.5
2018-Apr-19 03:30N 39°40' W 074°05'0 0.6
2018-Apr-19 03:00N 39°40' W 074°04'510.7
2018-Apr-19 02:30N 39°37' W 074°10'0 0.1
2018-Apr-19 02:00N 39°37' W 074°10'0 0.0
2018-Apr-19 01:27N 39°37' W 074°10'0 0.0
2018-Apr-19 00:51N 39°37' W 074°10'0 0.6
2018-Apr-19 00:30N 39°38' W 074°10'5 9.8
2018-Apr-18 23:59N 39°40' W 074°04'0 0.3
2018-Apr-18 23:30N 39°40' W 074°04'0 0.2
2018-Apr-18 23:00N 39°40' W 074°04'0 0.4
2018-Apr-18 22:30N 39°40' W 074°04'3 5.1
2018-Apr-18 22:00N 39°39' W 074°07'3 5.6
2018-Apr-18 21:30N 39°37' W 074°10'0 0.0
2018-Apr-18 21:00N 39°37' W 074°10'0 0.1
2018-Apr-18 20:30N 39°37' W 074°10'0 0.1
2018-Apr-18 20:00N 39°37' W 074°10'1 2.9
2018-Apr-18 19:29N 39°38' W 074°08'3 5.8
2018-Apr-18 19:00N 39°40' W 074°05'1 2.2
2018-Apr-18 18:30N 39°40' W 074°04'0 0.5
2018-Apr-18 17:59N 39°40' W 074°04'0 0.3
2018-Apr-18 17:29N 39°40' W 074°04'0 0.2
2018-Apr-18 16:59N 39°40' W 074°04'0 0.8
2018-Apr-18 16:30N 39°40' W 074°05'3 6.3
2018-Apr-18 15:58N 39°38' W 074°08'2 3.4
2018-Apr-18 15:28N 39°37' W 074°10'0 0.0
2018-Apr-18 14:58N 39°37' W 074°10'0 0.0
2018-Apr-18 14:29N 39°37' W 074°10'0 0.0
2018-Apr-18 13:57N 39°37' W 074°10'0 0.4
2018-Apr-18 13:28N 39°37' W 074°10'0 0.3
2018-Apr-18 12:56N 39°38' W 074°10'0 0.3
2018-Apr-18 12:27N 39°38' W 074°10'0 1.0
2018-Apr-18 12:00N 39°38' W 074°09'3 6.2
2018-Apr-18 11:27N 39°40' W 074°05'4 9.2
2018-Apr-18 11:00N 39°43' W 074°03'0 0.4
2018-Apr-18 10:30N 39°44' W 074°03'0 0.7
2018-Apr-18 09:59N 39°43' W 074°03'1 2.2
2018-Apr-18 09:28N 39°42' W 074°04'3 5.7
2018-Apr-18 08:59N 39°40' W 074°05'3 5.4
2018-Apr-18 08:30N 39°38' W 074°08'1 1.1
2018-Apr-18 08:00N 39°38' W 074°09'0 0.3
2018-Apr-18 07:29N 39°38' W 074°09'0 0.5
2018-Apr-18 07:00N 39°38' W 074°09'0 0.5
2018-Apr-18 06:27N 39°38' W 074°09'0 0.5
2018-Apr-18 06:00N 39°38' W 074°09'0 0.6
2018-Apr-18 05:30N 39°37' W 074°10'0 0.7
2018-Apr-18 04:54N 39°37' W 074°10'0 0.5
2018-Apr-18 04:26N 39°37' W 074°10'0 0.1
2018-Apr-18 04:00N 39°37' W 074°10'1 2.0
2018-Apr-18 03:29N 39°37' W 074°09'5 9.1
2018-Apr-18 02:59N 39°40' W 074°04'0 0.1
2018-Apr-18 02:30N 39°40' W 074°04'0 0.3
2018-Apr-18 01:56N 39°40' W 074°04'0 0.9
2018-Apr-18 01:30N 39°40' W 074°05'1 1.1
2018-Apr-18 01:00N 39°40' W 074°04'5 9.2
2018-Apr-18 00:29N 39°43' W 073°59'4112.3
2018-Apr-17 21:11N 40°23' W 073°53'2 9.4
2018-Apr-17 21:00N 40°25' W 073°53'4 8.5
2018-Apr-17 20:30N 40°29' W 073°55'510.1
2018-Apr-17 20:00N 40°31' W 074°01'610.8
2018-Apr-17 19:30N 40°37' W 074°03'3 6.3
2018-Apr-17 18:59N 40°40' W 074°04'0 0.1
2018-Apr-17 18:26N 40°40' W 074°04'0 0.0
2018-Apr-17 17:59N 40°40' W 074°04'0 0.0
2018-Apr-17 17:29N 40°40' W 074°04'0 0.0
2018-Apr-17 16:59N 40°40' W 074°04'0 0.0
2018-Apr-17 16:29N 40°40' W 074°04'0 0.0
2018-Apr-17 15:59N 40°40' W 074°04'0 0.0
2018-Apr-17 15:29N 40°40' W 074°04'0 0.0
2018-Apr-17 14:59N 40°40' W 074°04'0 0.0
2018-Apr-17 14:29N 40°40' W 074°04'0 0.0
2018-Apr-17 14:00N 40°40' W 074°04'0 0.0
2018-Apr-17 13:30N 40°40' W 074°04'0 0.0
2018-Apr-17 13:00N 40°40' W 074°04'0 0.0
2018-Apr-17 12:30N 40°40' W 074°04'0 0.9
2018-Apr-17 12:00N 40°40' W 074°04'2 5.0
2018-Apr-17 11:30N 40°37' W 074°03'610.2
2018-Apr-17 10:58N 40°32' W 074°02'3 7.1
2018-Apr-17 10:30N 40°29' W 074°05'1 0.1
2018-Apr-16 20:44N 40°29' W 074°06'0 0.0
2018-Apr-16 20:29N 40°29' W 074°06'0 0.0
2018-Apr-16 11:11N 40°29' W 074°06'0 0.1
2018-Apr-16 10:59N 40°29' W 074°06'0 0.0
2018-Apr-16 09:35N 40°29' W 074°06'0 0.0
2018-Apr-16 09:20N 40°29' W 074°06'0 0.0
2018-Apr-16 08:59N 40°29' W 074°06'0 0.0
2018-Apr-16 08:23N 40°29' W 074°06'0 0.0
2018-Apr-16 07:59N 40°29' W 074°06'0 0.0
2018-Apr-15 14:44N 40°29' W 074°06'0 0.1
2018-Apr-15 14:27N 40°29' W 074°06'0 0.0
2018-Apr-15 13:56N 40°29' W 074°06'0 0.0
2018-Apr-15 13:15N 40°29' W 074°06'0 0.1
2018-Apr-15 12:16N 40°29' W 074°06'2 7.1
2018-Apr-15 12:00N 40°29' W 074°03'8 8.8
2018-Apr-15 11:05N 40°26' W 073°53'2 9.8
2018-Apr-15 10:52N 40°24' W 073°51'40 7.6
2018-Apr-15 05:37N 39°44' W 073°58'6 7.6
2018-Apr-15 04:52N 39°41' W 074°03'6 3.2
2018-Apr-15 02:53N 39°37' W 074°10'0 0.3
2018-Apr-15 02:27N 39°37' W 074°10'0 0.6
2018-Apr-15 01:58N 39°38' W 074°10'5 8.3
2018-Apr-15 01:21N 39°40' W 074°04'0 0.5
2018-Apr-15 01:00N 39°40' W 074°04'0 0.2
2018-Apr-15 00:27N 39°40' W 074°04'0 0.0
2018-Apr-14 23:53N 39°40' W 074°04'0 0.2
2018-Apr-14 23:27N 39°40' W 074°04'510.0
2018-Apr-14 22:55N 39°37' W 074°10'0 0.0
2018-Apr-14 22:30N 39°37' W 074°10'0 0.0
2018-Apr-14 22:00N 39°37' W 074°10'0 0.0
2018-Apr-14 21:24N 39°37' W 074°10'1 1.9
2018-Apr-14 20:59N 39°38' W 074°09'5 9.0
2018-Apr-14 20:29N 39°40' W 074°04'0 0.2
2018-Apr-14 19:59N 39°40' W 074°04'0 0.7
2018-Apr-14 19:29N 39°40' W 074°04'0 0.2
2018-Apr-14 19:00N 39°40' W 074°04'0 0.9
2018-Apr-14 18:30N 39°40' W 074°04'0 0.1
2018-Apr-14 18:00N 39°40' W 074°04'0 0.3
2018-Apr-14 17:31N 39°40' W 074°04'0 0.4
2018-Apr-14 17:00N 39°40' W 074°04'5 4.3
2018-Apr-14 15:50N 39°37' W 074°10'0 0.0
2018-Apr-14 15:14N 39°37' W 074°10'0 0.1
2018-Apr-14 14:55N 39°37' W 074°10'1 2.5
2018-Apr-14 14:28N 39°38' W 074°09'4 9.2
2018-Apr-14 14:00N 39°40' W 074°04'0 0.3
2018-Apr-14 13:25N 39°40' W 074°04'0 0.7
2018-Apr-14 13:00N 39°40' W 074°04'0 0.3
2018-Apr-14 12:28N 39°40' W 074°04'0 0.2
2018-Apr-14 11:53N 39°40' W 074°04'0 0.2
2018-Apr-14 11:19N 39°40' W 074°04'0 1.3
2018-Apr-14 10:59N 39°40' W 074°05'510.3
2018-Apr-14 10:30N 39°37' W 074°10'0 0.0
2018-Apr-14 10:00N 39°37' W 074°10'0 0.0
2018-Apr-14 09:28N 39°37' W 074°10'0 0.0
2018-Apr-14 09:00N 39°37' W 074°10'0 0.3
2018-Apr-14 08:28N 39°38' W 074°10'5 9.3
2018-Apr-14 07:56N 39°40' W 074°04'0 0.8
2018-Apr-14 07:30N 39°40' W 074°04'0 0.2
2018-Apr-14 06:50N 39°40' W 074°04'0 0.5
2018-Apr-14 06:30N 39°40' W 074°04'0 0.2
2018-Apr-14 06:00N 39°40' W 074°04'0 0.2
2018-Apr-14 05:23N 39°40' W 074°04'3 6.7
2018-Apr-14 05:00N 39°39' W 074°07'3 6.0
2018-Apr-14 04:30N 39°37' W 074°10'0 0.0
2018-Apr-14 03:59N 39°37' W 074°10'0 0.1
2018-Apr-14 03:30N 39°37' W 074°10'0 0.0
2018-Apr-14 02:56N 39°37' W 074°10'2 3.6
2018-Apr-14 02:30N 39°38' W 074°08'3 5.3
2018-Apr-14 01:59N 39°39' W 074°05'1 2.4
2018-Apr-14 01:30N 39°40' W 074°04'0 0.1
2018-Apr-14 01:00N 39°40' W 074°04'0 0.1
2018-Apr-14 00:29N 39°40' W 074°04'0 0.2
2018-Apr-13 23:56N 39°40' W 074°04'0 0.6
2018-Apr-13 23:30N 39°40' W 074°04'0 0.2
2018-Apr-13 23:00N 39°40' W 074°04'2 3.5
2018-Apr-13 22:29N 39°39' W 074°06'4 6.6
2018-Apr-13 21:57N 39°37' W 074°10'0 0.0
2018-Apr-13 21:29N 39°37' W 074°10'0 0.0
2018-Apr-13 21:00N 39°37' W 074°10'0 0.0
2018-Apr-13 20:29N 39°37' W 074°10'4 7.3
2018-Apr-13 19:59N 39°39' W 074°06'2 3.5
2018-Apr-13 19:30N 39°40' W 074°04'0 0.3
2018-Apr-13 19:00N 39°40' W 074°04'1 1.3
2018-Apr-13 18:31N 39°40' W 074°03'1 1.2
2018-Apr-13 18:00N 39°40' W 074°04'0 0.1
2018-Apr-13 17:27N 39°40' W 074°04'1 1.2
2018-Apr-13 17:00N 39°40' W 074°05'5 9.4
2018-Apr-13 16:29N 39°37' W 074°10'0 0.0
2018-Apr-13 16:00N 39°37' W 074°10'0 0.0
2018-Apr-13 15:29N 39°37' W 074°10'0 0.0
2018-Apr-13 14:59N 39°37' W 074°10'1 1.5
2018-Apr-13 14:30N 39°38' W 074°09'5 9.0
2018-Apr-13 13:59N 39°40' W 074°04'0 0.4
2018-Apr-13 13:28N 39°40' W 074°04'0 0.2
2018-Apr-13 13:00N 39°40' W 074°04'0 0.8
2018-Apr-13 12:26N 39°40' W 074°04'0 0.3
2018-Apr-13 12:00N 39°40' W 074°04'0 0.0
2018-Apr-13 11:30N 39°40' W 074°04'0 0.2
2018-Apr-13 10:58N 39°41' W 074°04'0 0.2
2018-Apr-13 10:26N 39°41' W 074°04'1 3.3
2018-Apr-13 10:00N 39°40' W 074°02'0 0.6
2018-Apr-13 09:30N 39°40' W 074°02'0 0.2
2018-Apr-13 08:57N 39°40' W 074°02'0 0.1
2018-Apr-13 08:30N 39°40' W 074°02'0 0.1
2018-Apr-13 07:59N 39°40' W 074°02'0 0.2
2018-Apr-13 07:28N 39°40' W 074°02'0 0.3
2018-Apr-13 07:00N 39°41' W 074°02'0 0.5
2018-Apr-13 06:25N 39°41' W 074°02'0 0.8
2018-Apr-13 05:59N 39°41' W 074°02'0 0.8
2018-Apr-13 05:30N 39°41' W 074°01'0 0.6
2018-Apr-13 05:00N 39°42' W 074°01'0 0.8
2018-Apr-13 04:29N 39°42' W 074°01'0 0.8
2018-Apr-13 03:59N 39°42' W 074°01'0 0.4
2018-Apr-13 03:30N 39°43' W 074°01'0 0.5
2018-Apr-13 02:57N 39°43' W 074°01'1 1.2
2018-Apr-13 02:29N 39°42' W 074°01'2 4.0
2018-Apr-13 01:59N 39°40' W 074°02'1 2.8
2018-Apr-13 01:30N 39°39' W 074°02'1 1.7
2018-Apr-13 01:00N 39°40' W 074°03'1 1.5
2018-Apr-13 00:28N 39°41' W 074°03'1 1.6
2018-Apr-12 23:59N 39°41' W 074°03'0 0.3
2018-Apr-12 23:30N 39°41' W 074°03'0 0.1
2018-Apr-12 23:00N 39°42' W 074°03'0 0.0
2018-Apr-12 22:29N 39°42' W 074°03'0 0.2
2018-Apr-12 21:59N 39°42' W 074°03'0 0.3
2018-Apr-12 21:29N 39°42' W 074°03'0 0.5
2018-Apr-12 20:58N 39°42' W 074°03'1 1.1
2018-Apr-12 20:30N 39°43' W 074°04'1 1.6
2018-Apr-12 19:54N 39°43' W 074°04'1 1.7
2018-Apr-12 19:29N 39°43' W 074°04'1 1.2
2018-Apr-12 18:59N 39°42' W 074°04'0 0.7
2018-Apr-12 18:29N 39°42' W 074°03'1 1.2
2018-Apr-12 18:00N 39°42' W 074°03'0 0.8
2018-Apr-12 17:30N 39°41' W 074°03'0 0.5
2018-Apr-12 17:00N 39°41' W 074°04'0 0.8
2018-Apr-12 16:28N 39°41' W 074°04'1 1.1
2018-Apr-12 15:57N 39°41' W 074°04'0 0.8
2018-Apr-12 15:30N 39°40' W 074°04'0 0.1
2018-Apr-12 14:58N 39°40' W 074°04'0 0.3
2018-Apr-12 14:30N 39°40' W 074°04'0 0.0
2018-Apr-12 14:00N 39°40' W 074°04'0 0.1
2018-Apr-12 13:28N 39°40' W 074°04'0 0.1
2018-Apr-12 12:59N 39°40' W 074°04'0 0.1
2018-Apr-12 12:27N 39°40' W 074°04'0 0.6
2018-Apr-12 12:00N 39°40' W 074°04'0 0.3
2018-Apr-12 11:26N 39°40' W 074°05'0 0.7
2018-Apr-12 11:00N 39°40' W 074°04'0 0.8
2018-Apr-12 10:30N 39°40' W 074°05'510.1
2018-Apr-12 10:00N 39°37' W 074°10'0 0.1
2018-Apr-12 09:30N 39°37' W 074°10'0 0.0
2018-Apr-12 08:59N 39°37' W 074°10'0 0.0
2018-Apr-12 08:30N 39°37' W 074°10'1 2.4
2018-Apr-12 07:57N 39°38' W 074°09'4 7.4
2018-Apr-12 07:28N 39°40' W 074°05'0 0.9
2018-Apr-12 07:00N 39°40' W 074°04'0 0.1
2018-Apr-12 06:30N 39°40' W 074°04'0 0.2
2018-Apr-12 05:59N 39°40' W 074°04'0 0.6
2018-Apr-12 05:30N 39°40' W 074°05'0 0.6
2018-Apr-12 05:00N 39°40' W 074°05'5 9.1
2018-Apr-12 04:28N 39°37' W 074°10'0 0.0
2018-Apr-12 03:59N 39°37' W 074°10'0 0.0
2018-Apr-12 03:29N 39°37' W 074°10'0 0.1
2018-Apr-12 03:00N 39°37' W 074°10'2 3.3
2018-Apr-12 02:30N 39°38' W 074°08'4 7.4
2018-Apr-12 01:59N 39°40' W 074°04'0 0.9
2018-Apr-12 01:28N 39°40' W 074°05'0 0.4
2018-Apr-12 00:59N 39°40' W 074°04'0 0.1
2018-Apr-12 00:29N 39°40' W 074°04'0 0.1
2018-Apr-12 00:00N 39°40' W 074°04'3 5.8
2018-Apr-11 23:28N 39°38' W 074°08'2 4.4
2018-Apr-11 22:58N 39°37' W 074°10'0 0.2
2018-Apr-11 22:30N 39°37' W 074°10'0 0.1
2018-Apr-11 21:39N 39°37' W 074°10'0 0.4
2018-Apr-11 21:30N 39°37' W 074°10'5 9.4
2018-Apr-11 21:00N 39°40' W 074°05'1 1.2
2018-Apr-11 20:30N 39°40' W 074°04'0 0.3
2018-Apr-11 20:00N 39°40' W 074°04'0 0.1
2018-Apr-11 19:30N 39°40' W 074°04'0 0.1
2018-Apr-11 19:00N 39°40' W 074°04'0 0.1
2018-Apr-11 18:30N 39°40' W 074°04'3 5.0
2018-Apr-11 18:00N 39°39' W 074°07'3 5.7
2018-Apr-11 17:30N 39°37' W 074°10'0 0.2
2018-Apr-11 17:00N 39°37' W 074°10'0 0.1
2018-Apr-11 16:30N 39°37' W 074°10'0 0.0
2018-Apr-11 15:59N 39°37' W 074°10'0 0.8
2018-Apr-11 15:29N 39°37' W 074°10'510.5
2018-Apr-11 15:01N 39°40' W 074°05'0 0.3
2018-Apr-11 14:30N 39°40' W 074°04'0 0.3
2018-Apr-11 13:59N 39°40' W 074°04'0 0.3
2018-Apr-11 13:30N 39°40' W 074°04'  
Track history (hours):
 
Tides and Currents Weather Stations Pressure Air Temp Water Temp Dewpoint Dewpoint Depression Visibility Wind Speed Wind Dir Waves Ship Positions

Magdalen

Owner: Weeks Marine, Inc., Cranford, NJ. More information available from US FCC via Universal Licensing System and Coast Guard Vessel Documentation Center.

Last reported at 2018-Apr-21 13:00 UTC. Time now 2018-Apr-21 13:28 UTC.
Position N 39°37' W 074°10'.

Length 83 m; draft 4.7 m.

Type: Dredging. MMSI: 369305000.

Date/timePositionNaut miles runAvg speedWind from/ knotsBaromVisibWave heightAir tempDewpointWater temp
2018-Apr-21 13:00N 39°37' W 074°10'0 0.1
2018-Apr-21 12:29N 39°37' W 074°10'5 9.9
2018-Apr-21 11:59N 39°40' W 074°05'1 1.3
2018-Apr-21 11:30N 39°40' W 074°04'0 0.8
2018-Apr-21 11:00N 39°40' W 074°05'0 0.6
2018-Apr-21 10:28N 39°40' W 074°04'0 0.5
2018-Apr-21 10:00N 39°40' W 074°04'4 8.5
2018-Apr-21 09:29N 39°38' W 074°09'1 1.8
2018-Apr-21 08:58N 39°37' W 074°10'0 0.0
2018-Apr-21 08:28N 39°37' W 074°10'0 0.1
2018-Apr-21 07:59N 39°37' W 074°10'0 0.1
2018-Apr-21 07:29N 39°37' W 074°10'5 9.7
2018-Apr-21 06:57N 39°40' W 074°04'1 1.4
2018-Apr-21 06:28N 39°40' W 074°05'0 0.4
2018-Apr-21 05:59N 39°40' W 074°05'0 0.8
2018-Apr-21 05:30N 39°40' W 074°04'0 0.1
2018-Apr-21 05:00N 39°40' W 074°04'0 0.1
2018-Apr-21 04:29N 39°40' W 074°04'1 2.9
2018-Apr-21 04:00N 39°39' W 074°06'4 8.3
2018-Apr-21 03:30N 39°37' W 074°10'0 0.0
2018-Apr-21 03:00N 39°37' W 074°10'0 0.0
2018-Apr-21 02:30N 39°37' W 074°10'0 0.1
2018-Apr-21 02:00N 39°37' W 074°10'0 0.5
2018-Apr-21 01:28N 39°37' W 074°10'511.5
2018-Apr-21 01:00N 39°40' W 074°04'0 0.9
2018-Apr-21 00:30N 39°40' W 074°04'0 0.3
2018-Apr-20 23:59N 39°40' W 074°04'0 0.4
2018-Apr-20 23:30N 39°40' W 074°04'0 0.7
2018-Apr-20 22:59N 39°40' W 074°05'2 5.1
2018-Apr-20 22:29N 39°39' W 074°07'3 5.4
2018-Apr-20 22:00N 39°37' W 074°10'0 0.0
2018-Apr-20 21:27N 39°37' W 074°10'0 0.1
2018-Apr-20 20:57N 39°37' W 074°10'0 0.1
2018-Apr-20 20:30N 39°37' W 074°10'0 0.1
2018-Apr-20 20:00N 39°37' W 074°10'5 9.6
2018-Apr-20 19:28N 39°40' W 074°04'0 0.7
2018-Apr-20 19:00N 39°40' W 074°04'0 0.7
2018-Apr-20 18:29N 39°40' W 074°05'0 0.5
2018-Apr-20 18:00N 39°40' W 074°04'0 0.5
2018-Apr-20 17:30N 39°40' W 074°05'510.0
2018-Apr-20 17:01N 39°37' W 074°10'0 0.4
2018-Apr-20 16:30N 39°37' W 074°10'0 0.1
2018-Apr-20 16:00N 39°37' W 074°10'0 0.0
2018-Apr-20 15:30N 39°37' W 074°10'0 0.1
2018-Apr-20 14:56N 39°37' W 074°10'4 7.6
2018-Apr-20 14:27N 39°39' W 074°06'2 3.9
2018-Apr-20 13:59N 39°40' W 074°04'0 0.3
2018-Apr-20 13:18N 39°40' W 074°04'0 0.8
2018-Apr-20 13:00N 39°40' W 074°04'0 0.4
2018-Apr-20 12:28N 39°40' W 074°04'0 0.8
2018-Apr-20 12:00N 39°40' W 074°05'3 5.4
2018-Apr-20 11:30N 39°39' W 074°08'2 4.9
2018-Apr-20 11:00N 39°37' W 074°10'0 0.0
2018-Apr-20 10:29N 39°37' W 074°10'0 0.0
2018-Apr-20 10:00N 39°37' W 074°10'0 0.0
2018-Apr-20 09:30N 39°37' W 074°10'1 2.3
2018-Apr-20 09:00N 39°38' W 074°09'4 7.0
2018-Apr-20 08:25N 39°40' W 074°04'0 0.5
2018-Apr-20 07:58N 39°40' W 074°04'0 1.1
2018-Apr-20 07:31N 39°40' W 074°05'0 0.1
2018-Apr-20 07:00N 39°40' W 074°05'0 0.7
2018-Apr-20 06:30N 39°40' W 074°05'2 4.5
2018-Apr-20 06:00N 39°39' W 074°07'3 6.1
2018-Apr-20 05:30N 39°37' W 074°10'0 0.0
2018-Apr-20 05:00N 39°37' W 074°10'0 0.1
2018-Apr-20 04:29N 39°37' W 074°10'0 0.1
2018-Apr-20 03:59N 39°37' W 074°10'4 8.0
2018-Apr-20 03:27N 39°39' W 074°05'1 2.8
2018-Apr-20 02:59N 39°40' W 074°05'0 0.6
2018-Apr-20 02:30N 39°40' W 074°04'0 1.0
2018-Apr-20 02:00N 39°40' W 074°05'0 0.6
2018-Apr-20 01:29N 39°40' W 074°04'0 0.1
2018-Apr-20 00:59N 39°40' W 074°04'0 0.1
2018-Apr-20 00:30N 39°40' W 074°04'1 1.1
2018-Apr-19 23:59N 39°40' W 074°05'5 9.4
2018-Apr-19 23:29N 39°37' W 074°10'0 0.1
2018-Apr-19 22:58N 39°37' W 074°10'0 0.0
2018-Apr-19 22:26N 39°37' W 074°10'0 0.1
2018-Apr-19 22:00N 39°37' W 074°10'0 0.1
2018-Apr-19 21:29N 39°37' W 074°10'510.1
2018-Apr-19 20:59N 39°40' W 074°05'1 1.1
2018-Apr-19 20:31N 39°40' W 074°04'0 0.9
2018-Apr-19 20:00N 39°40' W 074°05'0 0.7
2018-Apr-19 19:28N 39°40' W 074°04'1 1.6
2018-Apr-19 18:59N 39°40' W 074°05'5 9.1
2018-Apr-19 18:27N 39°37' W 074°10'0 0.0
2018-Apr-19 17:58N 39°37' W 074°10'0 0.0
2018-Apr-19 17:30N 39°37' W 074°10'0 0.1
2018-Apr-19 17:00N 39°37' W 074°10'4 7.8
2018-Apr-19 16:30N 39°39' W 074°06'2 3.3
2018-Apr-19 16:00N 39°40' W 074°05'0 0.3
2018-Apr-19 15:30N 39°40' W 074°04'0 0.1
2018-Apr-19 14:59N 39°40' W 074°04'0 0.4
2018-Apr-19 14:30N 39°40' W 074°04'1 1.0
2018-Apr-19 13:59N 39°40' W 074°05'4 8.1
2018-Apr-19 13:26N 39°38' W 074°09'1 1.3
2018-Apr-19 12:54N 39°37' W 074°10'0 0.0
2018-Apr-19 12:30N 39°37' W 074°10'0 0.1
2018-Apr-19 11:56N 39°37' W 074°10'0 0.1
2018-Apr-19 11:21N 39°37' W 074°10'3 7.5
2018-Apr-19 11:00N 39°38' W 074°07'2 4.8
2018-Apr-19 10:30N 39°40' W 074°05'0 0.4
2018-Apr-19 10:00N 39°40' W 074°05'0 0.6
2018-Apr-19 09:30N 39°40' W 074°04'0 0.2
2018-Apr-19 09:00N 39°40' W 074°04'0 0.2
2018-Apr-19 08:30N 39°40' W 074°04'0 0.6
2018-Apr-19 08:00N 39°40' W 074°05'5 9.9
2018-Apr-19 07:30N 39°37' W 074°10'0 0.3
2018-Apr-19 07:00N 39°37' W 074°10'0 0.2
2018-Apr-19 06:30N 39°37' W 074°10'0 0.0
2018-Apr-19 06:00N 39°37' W 074°10'0 0.2
2018-Apr-19 05:27N 39°37' W 074°10'511.3
2018-Apr-19 05:00N 39°41' W 074°05'1 1.8
2018-Apr-19 04:30N 39°40' W 074°04'0 0.3
2018-Apr-19 04:00N 39°40' W 074°04'0 0.5
2018-Apr-19 03:30N 39°40' W 074°05'0 0.6
2018-Apr-19 03:00N 39°40' W 074°04'510.7
2018-Apr-19 02:30N 39°37' W 074°10'0 0.1
2018-Apr-19 02:00N 39°37' W 074°10'0 0.0
2018-Apr-19 01:27N 39°37' W 074°10'0 0.0
2018-Apr-19 00:51N 39°37' W 074°10'0 0.6
2018-Apr-19 00:30N 39°38' W 074°10'5 9.8
2018-Apr-18 23:59N 39°40' W 074°04'0 0.3
2018-Apr-18 23:30N 39°40' W 074°04'0 0.2
2018-Apr-18 23:00N 39°40' W 074°04'0 0.4
2018-Apr-18 22:30N 39°40' W 074°04'3 5.1
2018-Apr-18 22:00N 39°39' W 074°07'3 5.6
2018-Apr-18 21:30N 39°37' W 074°10'0 0.0
2018-Apr-18 21:00N 39°37' W 074°10'0 0.1
2018-Apr-18 20:30N 39°37' W 074°10'0 0.1
2018-Apr-18 20:00N 39°37' W 074°10'1 2.9
2018-Apr-18 19:29N 39°38' W 074°08'3 5.8
2018-Apr-18 19:00N 39°40' W 074°05'1 2.2
2018-Apr-18 18:30N 39°40' W 074°04'0 0.5
2018-Apr-18 17:59N 39°40' W 074°04'0 0.3
2018-Apr-18 17:29N 39°40' W 074°04'0 0.2
2018-Apr-18 16:59N 39°40' W 074°04'0 0.8
2018-Apr-18 16:30N 39°40' W 074°05'3 6.3
2018-Apr-18 15:58N 39°38' W 074°08'2 3.4
2018-Apr-18 15:28N 39°37' W 074°10'0 0.0
2018-Apr-18 14:58N 39°37' W 074°10'0 0.0
2018-Apr-18 14:29N 39°37' W 074°10'0 0.0
2018-Apr-18 13:57N 39°37' W 074°10'0 0.4
2018-Apr-18 13:28N 39°37' W 074°10'0 0.3
2018-Apr-18 12:56N 39°38' W 074°10'0 0.3
2018-Apr-18 12:27N 39°38' W 074°10'0 1.0
2018-Apr-18 12:00N 39°38' W 074°09'3 6.2
2018-Apr-18 11:27N 39°40' W 074°05'4 9.2
2018-Apr-18 11:00N 39°43' W 074°03'0 0.4
2018-Apr-18 10:30N 39°44' W 074°03'0 0.7
2018-Apr-18 09:59N 39°43' W 074°03'1 2.2
2018-Apr-18 09:28N 39°42' W 074°04'3 5.7
2018-Apr-18 08:59N 39°40' W 074°05'3 5.4
2018-Apr-18 08:30N 39°38' W 074°08'1 1.1
2018-Apr-18 08:00N 39°38' W 074°09'0 0.3
2018-Apr-18 07:29N 39°38' W 074°09'0 0.5
2018-Apr-18 07:00N 39°38' W 074°09'0 0.5
2018-Apr-18 06:27N 39°38' W 074°09'0 0.5
2018-Apr-18 06:00N 39°38' W 074°09'0 0.6
2018-Apr-18 05:30N 39°37' W 074°10'0 0.7
2018-Apr-18 04:54N 39°37' W 074°10'0 0.5
2018-Apr-18 04:26N 39°37' W 074°10'0 0.1
2018-Apr-18 04:00N 39°37' W 074°10'1 2.0
2018-Apr-18 03:29N 39°37' W 074°09'5 9.1
2018-Apr-18 02:59N 39°40' W 074°04'0 0.1
2018-Apr-18 02:30N 39°40' W 074°04'0 0.3
2018-Apr-18 01:56N 39°40' W 074°04'0 0.9
2018-Apr-18 01:30N 39°40' W 074°05'1 1.1
2018-Apr-18 01:00N 39°40' W 074°04'5 9.2
2018-Apr-18 00:29N 39°43' W 073°59'4112.3
2018-Apr-17 21:11N 40°23' W 073°53'2 9.4
2018-Apr-17 21:00N 40°25' W 073°53'4 8.5
2018-Apr-17 20:30N 40°29' W 073°55'510.1
2018-Apr-17 20:00N 40°31' W 074°01'610.8
2018-Apr-17 19:30N 40°37' W 074°03'3 6.3
2018-Apr-17 18:59N 40°40' W 074°04'0 0.1
2018-Apr-17 18:26N 40°40' W 074°04'0 0.0
2018-Apr-17 17:59N 40°40' W 074°04'0 0.0
2018-Apr-17 17:29N 40°40' W 074°04'0 0.0
2018-Apr-17 16:59N 40°40' W 074°04'0 0.0
2018-Apr-17 16:29N 40°40' W 074°04'0 0.0
2018-Apr-17 15:59N 40°40' W 074°04'0 0.0
2018-Apr-17 15:29N 40°40' W 074°04'0 0.0
2018-Apr-17 14:59N 40°40' W 074°04'0 0.0
2018-Apr-17 14:29N 40°40' W 074°04'0 0.0
2018-Apr-17 14:00N 40°40' W 074°04'0 0.0
2018-Apr-17 13:30N 40°40' W 074°04'0 0.0
2018-Apr-17 13:00N 40°40' W 074°04'0 0.0
2018-Apr-17 12:30N 40°40' W 074°04'0 0.9
2018-Apr-17 12:00N 40°40' W 074°04'2 5.0
2018-Apr-17 11:30N 40°37' W 074°03'610.2
2018-Apr-17 10:58N 40°32' W 074°02'3 7.1
2018-Apr-17 10:30N 40°29' W 074°05'1 0.1
2018-Apr-16 20:44N 40°29' W 074°06'0 0.0
2018-Apr-16 20:29N 40°29' W 074°06'0 0.0
2018-Apr-16 11:11N 40°29' W 074°06'0 0.1
2018-Apr-16 10:59N 40°29' W 074°06'0 0.0
2018-Apr-16 09:35N 40°29' W 074°06'0 0.0
2018-Apr-16 09:20N 40°29' W 074°06'0 0.0
2018-Apr-16 08:59N 40°29' W 074°06'0 0.0
2018-Apr-16 08:23N 40°29' W 074°06'0 0.0
2018-Apr-16 07:59N 40°29' W 074°06'0 0.0
2018-Apr-15 14:44N 40°29' W 074°06'0 0.1
2018-Apr-15 14:27N 40°29' W 074°06'0 0.0
2018-Apr-15 13:56N 40°29' W 074°06'0 0.0
2018-Apr-15 13:15N 40°29' W 074°06'0 0.1
2018-Apr-15 12:16N 40°29' W 074°06'2 7.1
2018-Apr-15 12:00N 40°29' W 074°03'8 8.8
2018-Apr-15 11:05N 40°26' W 073°53'2 9.8
2018-Apr-15 10:52N 40°24' W 073°51'40 7.6
2018-Apr-15 05:37N 39°44' W 073°58'6 7.6
2018-Apr-15 04:52N 39°41' W 074°03'6 3.2
2018-Apr-15 02:53N 39°37' W 074°10'0 0.3
2018-Apr-15 02:27N 39°37' W 074°10'0 0.6
2018-Apr-15 01:58N 39°38' W 074°10'5 8.3
2018-Apr-15 01:21N 39°40' W 074°04'0 0.5
2018-Apr-15 01:00N 39°40' W 074°04'0 0.2
2018-Apr-15 00:27N 39°40' W 074°04'0 0.0
2018-Apr-14 23:53N 39°40' W 074°04'0 0.2
2018-Apr-14 23:27N 39°40' W 074°04'510.0
2018-Apr-14 22:55N 39°37' W 074°10'0 0.0
2018-Apr-14 22:30N 39°37' W 074°10'0 0.0
2018-Apr-14 22:00N 39°37' W 074°10'0 0.0
2018-Apr-14 21:24N 39°37' W 074°10'1 1.9
2018-Apr-14 20:59N 39°38' W 074°09'5 9.0
2018-Apr-14 20:29N 39°40' W 074°04'0 0.2
2018-Apr-14 19:59N 39°40' W 074°04'0 0.7
2018-Apr-14 19:29N 39°40' W 074°04'0 0.2
2018-Apr-14 19:00N 39°40' W 074°04'0 0.9
2018-Apr-14 18:30N 39°40' W 074°04'0 0.1
2018-Apr-14 18:00N 39°40' W 074°04'0 0.3
2018-Apr-14 17:31N 39°40' W 074°04'0 0.4
2018-Apr-14 17:00N 39°40' W 074°04'5 4.3
2018-Apr-14 15:50N 39°37' W 074°10'0 0.0
2018-Apr-14 15:14N 39°37' W 074°10'0 0.1
2018-Apr-14 14:55N 39°37' W 074°10'1 2.5
2018-Apr-14 14:28N 39°38' W 074°09'4 9.2
2018-Apr-14 14:00N 39°40' W 074°04'0 0.3
2018-Apr-14 13:25N 39°40' W 074°04'0 0.7
2018-Apr-14 13:00N 39°40' W 074°04'0 0.3
2018-Apr-14 12:28N 39°40' W 074°04'0 0.2
2018-Apr-14 11:53N 39°40' W 074°04'0 0.2
2018-Apr-14 11:19N 39°40' W 074°04'0 1.3
2018-Apr-14 10:59N 39°40' W 074°05'510.3
2018-Apr-14 10:30N 39°37' W 074°10'0 0.0
2018-Apr-14 10:00N 39°37' W 074°10'0 0.0
2018-Apr-14 09:28N 39°37' W 074°10'0 0.0
2018-Apr-14 09:00N 39°37' W 074°10'0 0.3
2018-Apr-14 08:28N 39°38' W 074°10'5 9.3
2018-Apr-14 07:56N 39°40' W 074°04'0 0.8
2018-Apr-14 07:30N 39°40' W 074°04'0 0.2
2018-Apr-14 06:50N 39°40' W 074°04'0 0.5
2018-Apr-14 06:30N 39°40' W 074°04'0 0.2
2018-Apr-14 06:00N 39°40' W 074°04'0 0.2
2018-Apr-14 05:23N 39°40' W 074°04'3 6.7
2018-Apr-14 05:00N 39°39' W 074°07'3 6.0
2018-Apr-14 04:30N 39°37' W 074°10'0 0.0
2018-Apr-14 03:59N 39°37' W 074°10'0 0.1
2018-Apr-14 03:30N 39°37' W 074°10'0 0.0
2018-Apr-14 02:56N 39°37' W 074°10'2 3.6
2018-Apr-14 02:30N 39°38' W 074°08'3 5.3
2018-Apr-14 01:59N 39°39' W 074°05'1 2.4
2018-Apr-14 01:30N 39°40' W 074°04'0 0.1
2018-Apr-14 01:00N 39°40' W 074°04'0 0.1
2018-Apr-14 00:29N 39°40' W 074°04'0 0.2
2018-Apr-13 23:56N 39°40' W 074°04'0 0.6
2018-Apr-13 23:30N 39°40' W 074°04'0 0.2
2018-Apr-13 23:00N 39°40' W 074°04'2 3.5
2018-Apr-13 22:29N 39°39' W 074°06'4 6.6
2018-Apr-13 21:57N 39°37' W 074°10'0 0.0
2018-Apr-13 21:29N 39°37' W 074°10'0 0.0
2018-Apr-13 21:00N 39°37' W 074°10'0 0.0
2018-Apr-13 20:29N 39°37' W 074°10'4 7.3
2018-Apr-13 19:59N 39°39' W 074°06'2 3.5
2018-Apr-13 19:30N 39°40' W 074°04'0 0.3
2018-Apr-13 19:00N 39°40' W 074°04'1 1.3
2018-Apr-13 18:31N 39°40' W 074°03'1 1.2
2018-Apr-13 18:00N 39°40' W 074°04'0 0.1
2018-Apr-13 17:27N 39°40' W 074°04'1 1.2
2018-Apr-13 17:00N 39°40' W 074°05'5 9.4
2018-Apr-13 16:29N 39°37' W 074°10'0 0.0
2018-Apr-13 16:00N 39°37' W 074°10'0 0.0
2018-Apr-13 15:29N 39°37' W 074°10'0 0.0
2018-Apr-13 14:59N 39°37' W 074°10'1 1.5
2018-Apr-13 14:30N 39°38' W 074°09'5 9.0
2018-Apr-13 13:59N 39°40' W 074°04'0 0.4
2018-Apr-13 13:28N 39°40' W 074°04'0 0.2
2018-Apr-13 13:00N 39°40' W 074°04'0 0.8
2018-Apr-13 12:26N 39°40' W 074°04'0 0.3
2018-Apr-13 12:00N 39°40' W 074°04'0 0.0
2018-Apr-13 11:30N 39°40' W 074°04'0 0.2
2018-Apr-13 10:58N 39°41' W 074°04'0 0.2
2018-Apr-13 10:26N 39°41' W 074°04'1 3.3
2018-Apr-13 10:00N 39°40' W 074°02'0 0.6
2018-Apr-13 09:30N 39°40' W 074°02'0 0.2
2018-Apr-13 08:57N 39°40' W 074°02'0 0.1
2018-Apr-13 08:30N 39°40' W 074°02'0 0.1
2018-Apr-13 07:59N 39°40' W 074°02'0 0.2
2018-Apr-13 07:28N 39°40' W 074°02'0 0.3
2018-Apr-13 07:00N 39°41' W 074°02'0 0.5
2018-Apr-13 06:25N 39°41' W 074°02'0 0.8
2018-Apr-13 05:59N 39°41' W 074°02'0 0.8
2018-Apr-13 05:30N 39°41' W 074°01'0 0.6
2018-Apr-13 05:00N 39°42' W 074°01'0 0.8
2018-Apr-13 04:29N 39°42' W 074°01'0 0.8
2018-Apr-13 03:59N 39°42' W 074°01'0 0.4
2018-Apr-13 03:30N 39°43' W 074°01'0 0.5
2018-Apr-13 02:57N 39°43' W 074°01'1 1.2
2018-Apr-13 02:29N 39°42' W 074°01'2 4.0
2018-Apr-13 01:59N 39°40' W 074°02'1 2.8
2018-Apr-13 01:30N 39°39' W 074°02'1 1.7
2018-Apr-13 01:00N 39°40' W 074°03'1 1.5
2018-Apr-13 00:28N 39°41' W 074°03'1 1.6
2018-Apr-12 23:59N 39°41' W 074°03'0 0.3
2018-Apr-12 23:30N 39°41' W 074°03'0 0.1
2018-Apr-12 23:00N 39°42' W 074°03'0 0.0
2018-Apr-12 22:29N 39°42' W 074°03'0 0.2
2018-Apr-12 21:59N 39°42' W 074°03'0 0.3
2018-Apr-12 21:29N 39°42' W 074°03'0 0.5
2018-Apr-12 20:58N 39°42' W 074°03'1 1.1
2018-Apr-12 20:30N 39°43' W 074°04'1 1.6
2018-Apr-12 19:54N 39°43' W 074°04'1 1.7
2018-Apr-12 19:29N 39°43' W 074°04'1 1.2
2018-Apr-12 18:59N 39°42' W 074°04'0 0.7
2018-Apr-12 18:29N 39°42' W 074°03'1 1.2
2018-Apr-12 18:00N 39°42' W 074°03'0 0.8
2018-Apr-12 17:30N 39°41' W 074°03'0 0.5
2018-Apr-12 17:00N 39°41' W 074°04'0 0.8
2018-Apr-12 16:28N 39°41' W 074°04'1 1.1
2018-Apr-12 15:57N 39°41' W 074°04'0 0.8
2018-Apr-12 15:30N 39°40' W 074°04'0 0.1
2018-Apr-12 14:58N 39°40' W 074°04'0 0.3
2018-Apr-12 14:30N 39°40' W 074°04'0 0.0
2018-Apr-12 14:00N 39°40' W 074°04'0 0.1
2018-Apr-12 13:28N 39°40' W 074°04'0 0.1
2018-Apr-12 12:59N 39°40' W 074°04'0 0.1
2018-Apr-12 12:27N 39°40' W 074°04'0 0.6
2018-Apr-12 12:00N 39°40' W 074°04'0 0.3
2018-Apr-12 11:26N 39°40' W 074°05'0 0.7
2018-Apr-12 11:00N 39°40' W 074°04'0 0.8
2018-Apr-12 10:30N 39°40' W 074°05'510.1
2018-Apr-12 10:00N 39°37' W 074°10'0 0.1
2018-Apr-12 09:30N 39°37' W 074°10'0 0.0
2018-Apr-12 08:59N 39°37' W 074°10'0 0.0
2018-Apr-12 08:30N 39°37' W 074°10'1 2.4
2018-Apr-12 07:57N 39°38' W 074°09'4 7.4
2018-Apr-12 07:28N 39°40' W 074°05'0 0.9
2018-Apr-12 07:00N 39°40' W 074°04'0 0.1
2018-Apr-12 06:30N 39°40' W 074°04'0 0.2
2018-Apr-12 05:59N 39°40' W 074°04'0 0.6
2018-Apr-12 05:30N 39°40' W 074°05'0 0.6
2018-Apr-12 05:00N 39°40' W 074°05'5 9.1
2018-Apr-12 04:28N 39°37' W 074°10'0 0.0
2018-Apr-12 03:59N 39°37' W 074°10'0 0.0
2018-Apr-12 03:29N 39°37' W 074°10'0 0.1
2018-Apr-12 03:00N 39°37' W 074°10'2 3.3
2018-Apr-12 02:30N 39°38' W 074°08'4 7.4
2018-Apr-12 01:59N 39°40' W 074°04'0 0.9
2018-Apr-12 01:28N 39°40' W 074°05'0 0.4
2018-Apr-12 00:59N 39°40' W 074°04'0 0.1
2018-Apr-12 00:29N 39°40' W 074°04'0 0.1
2018-Apr-12 00:00N 39°40' W 074°04'3 5.8
2018-Apr-11 23:28N 39°38' W 074°08'2 4.4
2018-Apr-11 22:58N 39°37' W 074°10'0 0.2
2018-Apr-11 22:30N 39°37' W 074°10'0 0.1
2018-Apr-11 21:39N 39°37' W 074°10'0 0.4
2018-Apr-11 21:30N 39°37' W 074°10'5 9.4
2018-Apr-11 21:00N 39°40' W 074°05'1 1.2
2018-Apr-11 20:30N 39°40' W 074°04'0 0.3
2018-Apr-11 20:00N 39°40' W 074°04'0 0.1
2018-Apr-11 19:30N 39°40' W 074°04'0 0.1
2018-Apr-11 19:00N 39°40' W 074°04'0 0.1
2018-Apr-11 18:30N 39°40' W 074°04'3 5.0
2018-Apr-11 18:00N 39°39' W 074°07'3 5.7
2018-Apr-11 17:30N 39°37' W 074°10'0 0.2
2018-Apr-11 17:00N 39°37' W 074°10'0 0.1
2018-Apr-11 16:30N 39°37' W 074°10'0 0.0
2018-Apr-11 15:59N 39°37' W 074°10'0 0.8
2018-Apr-11 15:29N 39°37' W 074°10'510.5
2018-Apr-11 15:01N 39°40' W 074°05'0 0.3
2018-Apr-11 14:30N 39°40' W 074°04'0 0.3
2018-Apr-11 13:59N 39°40' W 074°04'0 0.3
2018-Apr-11 13:30N 39°40' W 074°04'  

Dump ship's entire track history